Alum Bank, PA

11:14 AM EST on January 16, 2017 (GMT -0500)
Ridgewood Heights | | Change Station

Elev 1493 ft 40.14 °N, 78.60 °W | Updated 44 minutes ago

Overcast
Overcast
30.2 °F
Feels Like 30 °F
N
0.0
Wind Variable Wind from South
Gusts 0.0 mph

Today
High -- | Low -- °F
--% Chance of Precip.
Yesterday
High -- | Low -- °F
Precip. -- in
Pressure 30.39 in
Visibility 10.0 miles
Clouds Mostly Cloudy 1700 ft
Overcast 9500 ft
Windchill 30 °F
Dew Point 24 °F
Humidity 77%
Rainfall 0.00 in
Snow Depth Not available.
7:34 AM 5:14 PM
Waning Gibbous, 80% visible
METAR KHMZ 161555Z AUTO 00000KT 10SM BKN017 OVC095 00/M07 A3039 RMK AO2 T10051066
Pressure 30.39 in
Visibility 10.0 miles
Clouds Mostly Cloudy 1700 ft
Overcast 9500 ft
Windchill 30 °F
Dew Point 24 °F
Humidity 77%
Rainfall 0.00 in
Snow Depth Not available.
7:34 AM 5:14 PM
Waning Gibbous, 80% visible
METAR KHMZ 161555Z AUTO 00000KT 10SM BKN017 OVC095 00/M07 A3039 RMK AO2 T10051066

Get Your Daily Forecast Email!

Thanks for signing up!

Be on the lookout for a verification email in your inbox.

You'll start receiving the daily forecast at 8 AM.

×

10-Day Weather Forecast

Almanac

Astronomy

Jan. 16, 2017 Rise Set
Actual Time
Civil Twilight
Nautical Twilight
Astronomical Twilight
Moon
Length of Visible Light
Length of Day
Tomorrow will be .
, % of the Moon is Illuminated

Today's Extremes

State Highs State Lows

Community

WunderPhotos

Upload Photos

1,962,540 photos uploaded!

WunderBlog® & News

Nearby

Air Quality

  Air Quality AQ Index Pollutant
Not available.

Snow Depth

Station Depth Elevation

Earthquake Activity

City Distance Mag. Time & Date
Minimum magnitude displayed is 2.5.

Coastal Water Temperatures

Place Temperature

Stations

Nearby Weather Stations

Station Location Temp. Windchill Dew Point Humidity Wind Precip. Elev Updated Type
                   

Watches & Warnings

There are currently no watches in effect.